createdAt,value
2022-08-12T00:02:26.614Z,22.40
2022-08-12T00:05:16.190Z,22.30
2022-08-12T00:08:05.148Z,22.40
2022-08-12T00:10:54.110Z,22.30
2022-08-12T00:13:42.664Z,22.40
2022-08-12T00:16:31.725Z,22.30
2022-08-12T00:19:20.381Z,22.30
2022-08-12T00:22:10.808Z,22.30
2022-08-12T00:25:00.655Z,22.30
2022-08-12T00:27:49.973Z,22.30
2022-08-12T00:30:38.117Z,22.20
2022-08-12T00:33:29.718Z,22.20
2022-08-12T00:36:36.376Z,22.20
2022-08-12T00:39:25.711Z,22.10
2022-08-12T00:42:12.520Z,22.10
2022-08-12T00:44:45.124Z,22.10
2022-08-12T00:47:24.613Z,21.80
2022-08-12T00:49:52.490Z,21.80
2022-08-12T00:52:23.958Z,21.80
2022-08-12T00:54:57.775Z,21.70
2022-08-12T00:57:30.883Z,21.70
2022-08-12T01:00:04.617Z,21.60
2022-08-12T01:02:38.956Z,21.50
2022-08-12T01:05:31.633Z,21.50
2022-08-12T01:08:20.205Z,21.50
2022-08-12T01:11:09.008Z,21.40
2022-08-12T01:13:42.710Z,21.40
2022-08-12T01:16:13.315Z,21.40
2022-08-12T01:18:45.612Z,21.40
2022-08-12T01:21:20.545Z,21.40
2022-08-12T01:23:56.653Z,21.40
2022-08-12T01:26:27.887Z,21.30
2022-08-12T01:29:00.050Z,21.20
2022-08-12T01:31:32.234Z,21.20
2022-08-12T01:34:28.553Z,21.30
2022-08-12T01:36:44.252Z,21.10
2022-08-12T01:39:17.817Z,21.10
2022-08-12T01:41:53.925Z,21.10
2022-08-12T01:44:25.256Z,20.80
2022-08-12T01:47:00.056Z,20.60
2022-08-12T01:49:51.673Z,20.50
2022-08-12T01:52:28.157Z,20.40
2022-08-12T01:55:01.317Z,20.40
2022-08-12T01:57:59.575Z,20.30
2022-08-12T02:00:14.901Z,20.20
2022-08-12T02:02:49.283Z,20.30
2022-08-12T02:05:41.373Z,20.30
2022-08-12T02:08:36.491Z,20.40
2022-08-12T02:11:18.256Z,20.50
2022-08-12T02:14:05.685Z,20.60
2022-08-12T02:16:45.598Z,20.40
2022-08-12T02:19:25.828Z,20.00
2022-08-12T02:22:04.730Z,20.00
2022-08-12T02:24:36.025Z,19.90
2022-08-12T02:27:09.574Z,19.80
2022-08-12T02:29:42.203Z,20.00
2022-08-12T02:32:15.016Z,20.20
2022-08-12T02:34:47.613Z,20.40
2022-08-12T02:37:19.254Z,20.40
2022-08-12T02:39:52.130Z,20.20
2022-08-12T02:42:23.982Z,19.90
2022-08-12T02:44:57.001Z,19.80
2022-08-12T02:47:59.204Z,19.90
2022-08-12T02:50:25.909Z,19.80
2022-08-12T02:52:58.385Z,19.80
2022-08-12T02:55:34.845Z,19.70
2022-08-12T02:58:09.071Z,19.70
2022-08-12T03:00:41.525Z,19.70
2022-08-12T03:03:15.178Z,19.50
2022-08-12T03:05:52.592Z,19.40
2022-08-12T03:08:32.483Z,19.30
2022-08-12T03:11:01.347Z,19.20
2022-08-12T03:13:35.734Z,19.10
2022-08-12T03:16:07.740Z,19.10
2022-08-12T03:18:39.108Z,19.10
2022-08-12T03:21:11.941Z,19.10
2022-08-12T03:23:46.075Z,19.10
2022-08-12T03:26:19.823Z,19.00
2022-08-12T03:28:51.792Z,19.00
2022-08-12T03:31:25.576Z,19.00
2022-08-12T03:34:01.643Z,19.00
2022-08-12T03:36:35.547Z,19.00
2022-08-12T03:39:36.546Z,19.10
2022-08-12T03:41:58.655Z,19.10
2022-08-12T03:44:50.138Z,19.10
2022-08-12T03:47:41.496Z,19.10
2022-08-12T03:50:30.165Z,19.20
2022-08-12T03:53:18.201Z,19.30
2022-08-12T03:56:06.326Z,19.40
2022-08-12T03:58:56.429Z,19.40
2022-08-12T04:01:27.567Z,19.30
2022-08-12T04:03:58.287Z,19.20
2022-08-12T04:06:35.351Z,19.00
2022-08-12T04:09:05.409Z,18.90
2022-08-12T04:11:57.710Z,18.90
2022-08-12T04:14:28.938Z,18.90
2022-08-12T04:17:00.097Z,18.90
2022-08-12T04:19:31.342Z,18.80
2022-08-12T04:22:03.713Z,18.80
2022-08-12T04:24:40.792Z,18.70
2022-08-12T04:27:10.905Z,18.50
2022-08-12T04:30:29.015Z,18.50
2022-08-12T04:32:14.142Z,18.40
2022-08-12T04:34:45.181Z,18.30
2022-08-12T04:37:17.011Z,18.20
2022-08-12T04:39:48.662Z,18.30
2022-08-12T04:42:20.343Z,18.40
2022-08-12T04:44:50.911Z,18.50
2022-08-12T04:47:22.413Z,18.40
2022-08-12T04:49:53.098Z,18.30
2022-08-12T04:52:24.593Z,18.40
2022-08-12T04:54:55.979Z,18.40
2022-08-12T04:57:26.980Z,18.50
2022-08-12T04:59:58.122Z,18.70
2022-08-12T05:02:29.140Z,18.80
2022-08-12T05:05:00.659Z,18.80
2022-08-12T05:07:33.839Z,18.70
2022-08-12T05:10:07.647Z,18.70
2022-08-12T05:12:41.580Z,18.60
2022-08-12T05:15:27.442Z,18.60
2022-08-12T05:17:47.807Z,18.70
2022-08-12T05:20:19.903Z,18.70
2022-08-12T05:22:53.078Z,18.80
2022-08-12T05:25:23.385Z,18.60
2022-08-12T05:27:57.954Z,18.50
2022-08-12T05:30:26.720Z,18.60
2022-08-12T05:33:00.292Z,18.60
2022-08-12T05:35:31.132Z,18.50
2022-08-12T05:38:21.016Z,18.40
2022-08-12T05:40:52.014Z,18.50
2022-08-12T05:43:23.256Z,18.70
2022-08-12T05:45:54.961Z,18.70
2022-08-12T05:48:26.311Z,18.90
2022-08-12T05:50:57.863Z,19.00
2022-08-12T05:53:28.757Z,19.20
2022-08-12T05:55:59.634Z,19.50
2022-08-12T05:58:31.355Z,19.80
2022-08-12T06:02:11.685Z,20.10
2022-08-12T06:03:34.857Z,20.30
2022-08-12T06:06:07.281Z,20.50
2022-08-12T06:08:38.430Z,20.70
2022-08-12T06:11:09.463Z,20.90
2022-08-12T06:13:53.690Z,21.10
2022-08-12T06:16:16.009Z,21.30
2022-08-12T06:18:48.754Z,21.50
2022-08-12T06:23:59.732Z,21.70
2022-08-12T06:26:30.875Z,22.00
2022-08-12T06:29:02.141Z,22.30
2022-08-12T06:31:34.766Z,22.50
2022-08-12T06:35:24.340Z,22.70
2022-08-12T06:36:38.557Z,22.80
2022-08-12T06:39:14.775Z,23.00
2022-08-12T06:42:27.711Z,23.20
2022-08-12T06:44:34.409Z,23.30
2022-08-12T06:47:05.560Z,23.20
2022-08-12T06:49:37.064Z,23.30
2022-08-12T06:52:09.350Z,23.40
2022-08-12T06:54:41.912Z,23.60
2022-08-12T06:58:05.662Z,23.60
2022-08-12T06:59:45.632Z,23.70
2022-08-12T07:02:16.730Z,23.80
2022-08-12T07:04:48.180Z,24.00
2022-08-12T07:07:19.344Z,24.10
2022-08-12T07:10:04.089Z,24.20
2022-08-12T07:12:23.250Z,24.20
2022-08-12T07:14:55.931Z,24.20
2022-08-12T07:17:29.169Z,24.30
2022-08-12T07:22:40.071Z,24.30
2022-08-12T07:25:30.534Z,24.30
2022-08-12T07:28:09.039Z,24.50
2022-08-12T07:30:39.890Z,24.70
2022-08-12T07:33:12.512Z,24.70
2022-08-12T07:35:45.622Z,24.70
2022-08-12T07:38:30.996Z,24.60
2022-08-12T07:41:06.633Z,24.80
2022-08-12T07:43:39.074Z,24.90
2022-08-12T07:46:15.283Z,24.80
2022-08-12T07:48:49.889Z,24.60
2022-08-12T07:51:24.815Z,24.80
2022-08-12T07:54:00.920Z,25.00
2022-08-12T07:56:48.886Z,25.20
2022-08-12T07:59:20.270Z,25.40
2022-08-12T08:01:52.704Z,25.30
2022-08-12T08:04:41.325Z,25.60
2022-08-12T08:07:12.539Z,25.70
2022-08-12T08:09:43.232Z,25.60
2022-08-12T08:12:51.315Z,25.90
2022-08-12T08:18:03.596Z,25.90
2022-08-12T08:20:36.509Z,26.00
2022-08-12T08:23:09.372Z,26.20
2022-08-12T08:25:41.509Z,25.50
2022-08-12T08:28:13.786Z,25.60
2022-08-12T08:30:46.923Z,26.00
2022-08-12T08:33:24.375Z,26.50
2022-08-12T08:35:50.692Z,26.70
2022-08-12T08:38:33.060Z,26.10
2022-08-12T08:41:13.618Z,26.20
2022-08-12T08:43:45.940Z,26.50
2022-08-12T08:46:17.492Z,26.70
2022-08-12T08:48:48.174Z,26.50
2022-08-12T08:51:18.842Z,26.80
2022-08-12T08:53:52.991Z,27.00
2022-08-12T08:56:22.900Z,26.80
2022-08-12T08:58:53.924Z,27.20
2022-08-12T09:01:25.146Z,26.80
2022-08-12T09:05:13.995Z,26.10
2022-08-12T09:06:36.999Z,26.60
2022-08-12T09:09:03.218Z,27.30
2022-08-12T09:12:10.584Z,27.40
2022-08-12T09:16:59.957Z,27.60
2022-08-12T09:19:31.037Z,27.10
2022-08-12T09:22:03.614Z,27.50
2022-08-12T09:24:36.340Z,27.50
2022-08-12T09:27:12.228Z,27.80
2022-08-12T09:30:11.804Z,28.10
2022-08-12T09:32:56.561Z,28.40
2022-08-12T09:34:50.700Z,28.50
2022-08-12T09:37:22.327Z,28.80
2022-08-12T09:40:04.297Z,28.90
2022-08-12T09:42:57.679Z,28.70
2022-08-12T09:46:05.405Z,28.60
2022-08-12T09:47:59.999Z,29.10
2022-08-12T09:50:29.809Z,29.20
2022-08-12T09:53:15.018Z,29.40
2022-08-12T09:56:06.509Z,29.30
2022-08-12T09:58:57.480Z,29.60
2022-08-12T10:00:52.876Z,29.90
2022-08-12T10:03:31.738Z,29.90
2022-08-12T10:06:26.273Z,30.00
2022-08-12T10:08:35.046Z,29.60
2022-08-12T10:11:26.407Z,29.90
2022-08-12T10:13:57.678Z,30.10
2022-08-12T10:16:36.833Z,30.30
2022-08-12T10:19:06.911Z,30.30
2022-08-12T10:21:42.356Z,30.40
2022-08-12T10:24:20.220Z,30.30
2022-08-12T10:27:07.215Z,30.40
2022-08-12T10:30:38.975Z,30.90
2022-08-12T10:32:20.765Z,31.10
2022-08-12T10:34:53.667Z,31.00
2022-08-12T10:38:34.557Z,31.70
2022-08-12T10:40:03.038Z,31.70
2022-08-12T10:42:46.445Z,31.60
2022-08-12T10:45:18.037Z,31.60
2022-08-12T10:48:07.641Z,31.90
2022-08-12T10:50:31.094Z,31.50
2022-08-12T10:52:57.006Z,31.50
2022-08-12T10:55:28.705Z,32.10
2022-08-12T10:58:28.403Z,31.40
2022-08-12T11:00:35.635Z,32.00
2022-08-12T11:04:27.055Z,32.20
2022-08-12T11:07:08.744Z,32.70
2022-08-12T11:08:38.022Z,32.60
2022-08-12T11:10:45.823Z,32.50
2022-08-12T11:13:17.012Z,32.30
2022-08-12T11:16:19.401Z,32.90
2022-08-12T11:18:20.414Z,33.20
2022-08-12T11:20:54.452Z,33.30
2022-08-12T11:23:37.210Z,33.70
2022-08-12T11:26:05.588Z,33.30
2022-08-12T11:28:33.957Z,33.30
2022-08-12T11:31:05.704Z,33.90
2022-08-12T11:34:04.971Z,33.70
2022-08-12T11:36:14.683Z,33.50
2022-08-12T11:38:50.372Z,33.60
2022-08-12T11:41:18.135Z,34.00
2022-08-12T11:43:59.129Z,34.30
2022-08-12T11:46:27.892Z,34.60
2022-08-12T11:49:00.167Z,33.90
2022-08-12T11:51:36.498Z,34.20
2022-08-12T11:54:07.292Z,34.70
2022-08-12T11:56:42.778Z,34.40
2022-08-12T12:02:03.114Z,33.30
2022-08-12T12:04:29.250Z,33.80
2022-08-12T12:06:52.938Z,33.50
2022-08-12T12:09:23.435Z,34.30
2022-08-12T12:11:55.275Z,34.80
2022-08-12T12:14:38.009Z,34.70
2022-08-12T12:16:59.568Z,35.60
2022-08-12T12:19:45.376Z,35.20
2022-08-12T12:22:03.071Z,34.30
2022-08-12T12:24:33.649Z,34.80
2022-08-12T12:27:04.852Z,35.80
2022-08-12T12:30:18.375Z,36.10
2022-08-12T12:32:11.685Z,36.10
2022-08-12T12:35:13.784Z,36.30
2022-08-12T12:37:16.256Z,36.20
2022-08-12T12:39:55.587Z,36.20
2022-08-12T12:42:45.490Z,35.50
2022-08-12T12:44:53.766Z,35.60
2022-08-12T12:47:30.098Z,36.20
2022-08-12T12:49:56.992Z,36.40
2022-08-12T12:52:27.762Z,35.90
2022-08-12T12:55:00.151Z,35.90
2022-08-12T12:57:59.080Z,36.10
2022-08-12T13:00:15.744Z,36.40
2022-08-12T13:02:55.806Z,36.50
2022-08-12T13:05:29.296Z,36.60
2022-08-12T13:08:01.864Z,37.30
2022-08-12T13:10:36.796Z,37.00
2022-08-12T13:14:07.579Z,36.90
2022-08-12T13:15:43.859Z,37.30
2022-08-12T13:18:13.303Z,36.80
2022-08-12T13:20:46.207Z,36.30
2022-08-12T13:23:36.703Z,36.80
2022-08-12T13:25:50.792Z,36.60
2022-08-12T13:28:28.383Z,37.00
2022-08-12T13:31:01.209Z,36.70
2022-08-12T13:34:31.812Z,36.50
2022-08-12T13:36:11.103Z,36.20
2022-08-12T13:38:40.650Z,36.50
2022-08-12T13:41:15.253Z,36.70
2022-08-12T13:43:47.599Z,37.10
2022-08-12T13:46:20.044Z,36.60
2022-08-12T13:49:11.233Z,37.20
2022-08-12T13:51:44.055Z,36.80
2022-08-12T13:54:15.721Z,37.10
2022-08-12T13:56:49.791Z,36.90
2022-08-12T13:59:20.472Z,37.20
2022-08-12T14:01:56.787Z,37.40
2022-08-12T14:04:27.383Z,37.10
2022-08-12T14:06:58.434Z,37.10
2022-08-12T14:09:31.747Z,36.70
2022-08-12T14:12:06.017Z,37.30
2022-08-12T14:14:36.782Z,37.10
2022-08-12T14:17:10.436Z,37.90
2022-08-12T14:19:52.893Z,37.90
2022-08-12T14:22:17.440Z,37.90
2022-08-12T14:24:49.097Z,38.10
2022-08-12T14:28:04.395Z,38.40
2022-08-12T14:30:05.201Z,38.20
2022-08-12T14:32:26.325Z,38.20
2022-08-12T14:34:57.161Z,37.60
2022-08-12T14:37:57.744Z,37.90
2022-08-12T14:40:01.323Z,38.10
2022-08-12T14:42:32.719Z,38.70
2022-08-12T14:47:52.238Z,38.80
2022-08-12T14:50:58.148Z,38.30
2022-08-12T14:58:04.544Z,38.80
2022-08-12T15:00:54.441Z,39.30
2022-08-12T15:03:52.635Z,39.10
2022-08-12T15:06:39.861Z,38.80
2022-08-12T15:08:37.608Z,39.10
2022-08-12T15:11:12.285Z,38.40
2022-08-12T15:13:45.780Z,38.60
2022-08-12T15:16:18.918Z,37.90
2022-08-12T15:18:55.083Z,39.00
2022-08-12T15:21:21.544Z,38.40
2022-08-12T15:23:55.132Z,37.50
2022-08-12T15:26:32.805Z,37.70
2022-08-12T15:28:59.931Z,38.10
2022-08-12T15:31:59.768Z,38.60
2022-08-12T15:34:04.084Z,38.50
2022-08-12T15:36:54.127Z,38.30
2022-08-12T15:39:16.426Z,37.50
2022-08-12T15:41:49.459Z,38.40
2022-08-12T15:44:36.753Z,37.80
2022-08-12T15:46:46.724Z,38.10
2022-08-12T15:49:18.712Z,38.20
2022-08-12T15:51:59.474Z,38.00
2022-08-12T15:54:33.197Z,38.10
2022-08-12T15:56:58.320Z,37.90
2022-08-12T15:59:51.298Z,38.00
2022-08-12T16:02:01.752Z,38.10
2022-08-12T16:04:35.014Z,36.50
2022-08-12T16:07:09.513Z,36.00
2022-08-12T16:09:56.571Z,35.40
2022-08-12T16:12:12.466Z,35.10
2022-08-12T16:14:44.888Z,34.60
2022-08-12T16:17:17.382Z,34.30
2022-08-12T16:20:03.426Z,33.80
2022-08-12T16:22:22.757Z,33.70
2022-08-12T16:24:54.163Z,33.30
2022-08-12T16:27:28.062Z,33.20
2022-08-12T16:30:00.643Z,33.20
2022-08-12T16:32:33.080Z,33.20
2022-08-12T16:35:16.152Z,33.20
2022-08-12T16:38:24.808Z,33.00
2022-08-12T16:40:18.804Z,33.00
2022-08-12T16:42:53.788Z,32.90
2022-08-12T16:45:22.713Z,32.70
2022-08-12T16:47:58.733Z,32.70
2022-08-12T16:50:31.233Z,32.50
2022-08-12T16:53:03.424Z,32.30
2022-08-12T16:55:42.502Z,32.10
2022-08-12T16:58:18.536Z,32.00
2022-08-12T17:00:41.887Z,31.90
2022-08-12T17:03:14.839Z,32.10
2022-08-12T17:05:49.694Z,32.10
2022-08-12T17:08:21.776Z,32.00
2022-08-12T17:10:54.527Z,31.90
2022-08-12T17:13:26.411Z,31.90
2022-08-12T17:16:06.312Z,32.00
2022-08-12T17:18:43.851Z,31.90
2022-08-12T17:21:07.629Z,31.80
2022-08-12T17:23:48.291Z,31.60
2022-08-12T17:26:12.397Z,31.50
2022-08-12T17:28:46.647Z,31.50
2022-08-12T17:31:59.539Z,31.30
2022-08-12T17:33:58.159Z,31.40
2022-08-12T17:36:25.931Z,31.20
2022-08-12T17:38:59.122Z,31.20
2022-08-12T17:41:55.739Z,31.00
2022-08-12T17:44:23.668Z,31.10
2022-08-12T17:46:56.809Z,31.10
2022-08-12T17:50:02.044Z,31.00
2022-08-12T17:52:02.837Z,31.00
2022-08-12T17:54:36.376Z,30.80
2022-08-12T17:57:16.482Z,30.60
2022-08-12T17:59:47.908Z,30.40
2022-08-12T18:02:16.829Z,30.30
2022-08-12T18:05:05.326Z,30.10
2022-08-12T18:07:21.730Z,30.00
2022-08-12T18:09:53.156Z,29.90
2022-08-12T18:12:50.954Z,29.70
2022-08-12T18:15:26.953Z,29.50
2022-08-12T18:17:59.243Z,29.40
2022-08-12T18:20:36.357Z,29.10
2022-08-12T18:23:04.753Z,29.00
2022-08-12T18:26:16.309Z,28.80
2022-08-12T18:28:30.759Z,28.70
2022-08-12T18:31:03.870Z,28.50
2022-08-12T18:33:41.485Z,28.40
2022-08-12T18:36:13.159Z,28.20
2022-08-12T18:38:44.938Z,28.10
2022-08-12T18:41:33.605Z,27.90
2022-08-12T18:44:07.958Z,27.80
2022-08-12T18:46:54.296Z,27.60
2022-08-12T18:49:33.421Z,27.30
2022-08-12T18:52:04.741Z,27.10
2022-08-12T18:54:38.628Z,27.00
2022-08-12T18:57:19.325Z,26.80
2022-08-12T19:00:00.971Z,26.70
2022-08-12T19:02:23.300Z,26.60
2022-08-12T19:04:54.651Z,26.40
2022-08-12T19:07:29.685Z,26.40
2022-08-12T19:10:04.250Z,26.30
2022-08-12T19:12:57.039Z,26.30
2022-08-12T19:15:25.842Z,26.30
2022-08-12T19:18:02.690Z,26.20
2022-08-12T19:20:30.621Z,26.10
2022-08-12T19:23:07.263Z,26.00
2022-08-12T19:26:00.571Z,25.80
2022-08-12T19:28:08.431Z,25.70
2022-08-12T19:30:57.437Z,25.70
2022-08-12T19:33:29.676Z,25.60
2022-08-12T19:38:46.997Z,25.60
2022-08-12T19:41:22.867Z,25.50
2022-08-12T19:44:00.297Z,25.50
2022-08-12T19:46:27.692Z,25.50
2022-08-12T19:48:58.611Z,25.50
2022-08-12T19:51:40.614Z,25.30
2022-08-12T19:54:11.803Z,25.20
2022-08-12T19:56:46.456Z,25.10
2022-08-12T19:59:43.115Z,25.20
2022-08-12T20:02:13.027Z,25.30
2022-08-12T20:06:03.859Z,25.30
2022-08-12T20:07:24.483Z,25.20
2022-08-12T20:09:57.009Z,25.10
2022-08-12T20:12:32.607Z,25.10
2022-08-12T20:15:05.719Z,25.10
2022-08-12T20:17:50.700Z,25.10
2022-08-12T20:20:18.828Z,25.20
2022-08-12T20:22:45.249Z,25.40
2022-08-12T20:25:19.039Z,25.00
2022-08-12T20:28:04.962Z,25.30
2022-08-12T20:30:37.462Z,25.70
2022-08-12T20:33:01.988Z,25.40
2022-08-12T20:36:06.530Z,25.20
2022-08-12T20:38:27.022Z,24.90
2022-08-12T20:40:42.468Z,25.00
2022-08-12T20:43:19.058Z,25.00
2022-08-12T20:45:50.990Z,25.30
2022-08-12T20:48:25.167Z,25.00
2022-08-12T20:50:56.219Z,24.70
2022-08-12T20:53:53.640Z,24.50
2022-08-12T20:56:01.803Z,24.30
2022-08-12T20:58:32.739Z,24.30
2022-08-12T21:01:03.944Z,24.40
2022-08-12T21:03:58.361Z,24.40
2022-08-12T21:06:44.622Z,24.10
2022-08-12T21:09:22.135Z,23.80
2022-08-12T21:11:50.647Z,23.70
2022-08-12T21:14:39.841Z,23.80
2022-08-12T21:16:55.442Z,23.90
2022-08-12T21:19:52.542Z,23.80
2022-08-12T21:21:59.518Z,23.80
2022-08-12T21:24:31.689Z,23.90
2022-08-12T21:27:07.391Z,23.70
2022-08-12T21:29:50.173Z,23.70
2022-08-12T21:32:40.503Z,23.60
2022-08-12T21:34:45.160Z,23.50
2022-08-12T21:37:27.783Z,23.40
2022-08-12T21:39:51.990Z,23.40
2022-08-12T21:42:28.061Z,23.60
2022-08-12T21:45:44.600Z,23.50
2022-08-12T21:47:28.808Z,23.40
2022-08-12T21:50:02.957Z,23.10
2022-08-12T21:52:34.568Z,22.80
2022-08-12T21:55:18.958Z,23.00
2022-08-12T21:57:51.230Z,23.10
2022-08-12T22:00:17.268Z,22.80
2022-08-12T22:03:05.890Z,22.60
2022-08-12T22:05:55.604Z,22.30
2022-08-12T22:08:26.682Z,22.20
2022-08-12T22:10:57.278Z,21.90
2022-08-12T22:14:07.713Z,21.90
2022-08-12T22:16:00.121Z,22.10
2022-08-12T22:18:30.777Z,22.00
2022-08-12T22:21:01.611Z,22.20
2022-08-12T22:24:04.072Z,22.30
2022-08-12T22:26:08.429Z,22.10
2022-08-12T22:28:58.784Z,22.00
2022-08-12T22:31:30.352Z,22.50
2022-08-12T22:34:02.732Z,22.50
2022-08-12T22:36:36.163Z,22.20
2022-08-12T22:39:10.538Z,22.50
2022-08-12T22:42:01.038Z,22.40
2022-08-12T22:44:54.171Z,22.20
2022-08-12T22:47:49.717Z,22.00
2022-08-12T22:50:11.851Z,21.70
2022-08-12T22:52:44.527Z,21.90
2022-08-12T22:55:18.472Z,22.10
2022-08-12T22:57:54.816Z,22.10
2022-08-12T23:00:27.935Z,22.20
2022-08-12T23:02:56.916Z,21.80
2022-08-12T23:05:57.406Z,21.80
2022-08-12T23:08:05.970Z,21.90
2022-08-12T23:10:36.972Z,22.00
2022-08-12T23:13:26.540Z,21.80
2022-08-12T23:15:59.457Z,21.70
2022-08-12T23:18:33.694Z,21.50
2022-08-12T23:21:05.093Z,21.40
2022-08-12T23:24:09.285Z,21.20
2022-08-12T23:26:10.415Z,21.20
2022-08-12T23:29:00.948Z,21.30
2022-08-12T23:32:02.931Z,21.40
2022-08-12T23:34:06.104Z,21.50
2022-08-12T23:36:39.773Z,21.20
2022-08-12T23:40:14.840Z,21.00
2022-08-12T23:41:56.147Z,21.00
2022-08-12T23:44:22.756Z,21.00
2022-08-12T23:46:59.224Z,21.00
2022-08-12T23:49:55.399Z,21.00
2022-08-12T23:52:08.885Z,21.10
2022-08-12T23:54:44.998Z,21.10
2022-08-12T23:57:17.358Z,21.20
2022-08-12T23:59:55.422Z,21.30
